sensor_id;sensor_type;location;lat;lon;timestamp;pressure;altitude;pressure_sealevel;temperature;humidity
77011;BME280;65945;53.148;17.956;2023-02-12T00:00:00;102651.31;;;0.26;84.88
77011;BME280;65945;53.148;17.956;2023-02-12T00:02:27;102660.20;;;0.17;85.17
77011;BME280;65945;53.148;17.956;2023-02-12T00:04:54;102666.20;;;0.10;85.33
77011;BME280;65945;53.148;17.956;2023-02-12T00:07:20;102667.98;;;0.08;85.51
77011;BME280;65945;53.148;17.956;2023-02-12T00:09:47;102673.66;;;0.05;85.47
77011;BME280;65945;53.148;17.956;2023-02-12T00:12:13;102675.68;;;0.01;85.57
77011;BME280;65945;53.148;17.956;2023-02-12T00:14:41;102675.02;;;-0.05;85.26
77011;BME280;65945;53.148;17.956;2023-02-12T00:17:07;102682.52;;;-0.06;85.85
77011;BME280;65945;53.148;17.956;2023-02-12T00:19:34;102690.64;;;-0.08;85.69
77011;BME280;65945;53.148;17.956;2023-02-12T00:22:01;102698.65;;;-0.10;85.55
77011;BME280;65945;53.148;17.956;2023-02-12T00:24:27;102702.90;;;-0.12;85.48
77011;BME280;65945;53.148;17.956;2023-02-12T00:26:54;102705.02;;;-0.18;85.47
77011;BME280;65945;53.148;17.956;2023-02-12T00:29:21;102710.42;;;-0.21;85.49
77011;BME280;65945;53.148;17.956;2023-02-12T00:31:47;102710.16;;;-0.24;85.24
77011;BME280;65945;53.148;17.956;2023-02-12T00:34:14;102715.99;;;-0.26;85.66
77011;BME280;65945;53.148;17.956;2023-02-12T00:36:41;102720.47;;;-0.29;85.37
77011;BME280;65945;53.148;17.956;2023-02-12T00:39:09;102725.79;;;-0.35;85.49
77011;BME280;65945;53.148;17.956;2023-02-12T00:41:36;102730.37;;;-0.43;85.33
77011;BME280;65945;53.148;17.956;2023-02-12T00:44:03;102734.06;;;-0.49;85.26
77011;BME280;65945;53.148;17.956;2023-02-12T00:46:29;102738.73;;;-0.52;85.62
77011;BME280;65945;53.148;17.956;2023-02-12T00:48:56;102744.98;;;-0.55;85.52
77011;BME280;65945;53.148;17.956;2023-02-12T00:51:22;102746.41;;;-0.58;85.48
77011;BME280;65945;53.148;17.956;2023-02-12T00:53:49;102747.86;;;-0.61;85.30
77011;BME280;65945;53.148;17.956;2023-02-12T00:56:16;102749.70;;;-0.65;85.33
77011;BME280;65945;53.148;17.956;2023-02-12T00:58:42;102756.24;;;-0.70;85.34
77011;BME280;65945;53.148;17.956;2023-02-12T01:01:09;102759.64;;;-0.73;85.16
77011;BME280;65945;53.148;17.956;2023-02-12T01:03:36;102770.83;;;-0.75;85.23
77011;BME280;65945;53.148;17.956;2023-02-12T01:06:04;102770.48;;;-0.79;84.87
77011;BME280;65945;53.148;17.956;2023-02-12T01:08:31;102772.36;;;-0.84;85.20
77011;BME280;65945;53.148;17.956;2023-02-12T01:11:02;102766.33;;;-0.86;85.37
77011;BME280;65945;53.148;17.956;2023-02-12T01:13:31;102771.81;;;-0.85;85.40
77011;BME280;65945;53.148;17.956;2023-02-12T01:16:06;102775.70;;;-0.85;85.49
77011;BME280;65945;53.148;17.956;2023-02-12T01:18:38;102779.42;;;-0.89;85.32
77011;BME280;65945;53.148;17.956;2023-02-12T01:21:15;102780.86;;;-0.94;85.30
77011;BME280;65945;53.148;17.956;2023-02-12T01:23:44;102784.61;;;-0.96;85.39
77011;BME280;65945;53.148;17.956;2023-02-12T01:26:11;102789.05;;;-0.98;85.44
77011;BME280;65945;53.148;17.956;2023-02-12T01:28:40;102797.41;;;-1.02;85.36
77011;BME280;65945;53.148;17.956;2023-02-12T01:31:14;102803.95;;;-1.04;85.27
77011;BME280;65945;53.148;17.956;2023-02-12T01:33:41;102812.67;;;-1.08;85.04
77011;BME280;65945;53.148;17.956;2023-02-12T01:36:09;102812.84;;;-1.12;85.07
77011;BME280;65945;53.148;17.956;2023-02-12T01:38:36;102813.27;;;-1.14;85.14
77011;BME280;65945;53.148;17.956;2023-02-12T01:41:10;102811.14;;;-1.16;85.10
77011;BME280;65945;53.148;17.956;2023-02-12T01:43:39;102811.21;;;-1.18;85.06
77011;BME280;65945;53.148;17.956;2023-02-12T01:46:07;102810.70;;;-1.19;85.23
77011;BME280;65945;53.148;17.956;2023-02-12T01:48:38;102806.39;;;-1.21;85.04
77011;BME280;65945;53.148;17.956;2023-02-12T01:51:08;102805.02;;;-1.23;85.01
77011;BME280;65945;53.148;17.956;2023-02-12T01:53:40;102804.63;;;-1.24;85.09
77011;BME280;65945;53.148;17.956;2023-02-12T01:56:09;102806.44;;;-1.24;85.07
77011;BME280;65945;53.148;17.956;2023-02-12T01:58:39;102812.39;;;-1.26;85.12
77011;BME280;65945;53.148;17.956;2023-02-12T02:01:12;102816.73;;;-1.32;85.05
77011;BME280;65945;53.148;17.956;2023-02-12T02:03:44;102821.77;;;-1.35;85.04
77011;BME280;65945;53.148;17.956;2023-02-12T02:06:15;102827.10;;;-1.38;85.03
77011;BME280;65945;53.148;17.956;2023-02-12T02:08:45;102825.84;;;-1.41;84.98
77011;BME280;65945;53.148;17.956;2023-02-12T02:11:13;102822.95;;;-1.43;85.16
77011;BME280;65945;53.148;17.956;2023-02-12T02:14:00;102825.88;;;-1.45;85.27
77011;BME280;65945;53.148;17.956;2023-02-12T02:16:56;102829.09;;;-1.47;85.24
77011;BME280;65945;53.148;17.956;2023-02-12T02:25:24;102838.64;;;-1.54;85.28
77011;BME280;65945;53.148;17.956;2023-02-12T02:31:16;102849.77;;;-1.53;85.52
77011;BME280;65945;53.148;17.956;2023-02-12T02:36:55;102848.91;;;-1.51;85.75
77011;BME280;65945;53.148;17.956;2023-02-12T02:39:43;102848.29;;;-1.49;85.60
77011;BME280;65945;53.148;17.956;2023-02-12T02:44:59;102852.52;;;-1.54;85.39
77011;BME280;65945;53.148;17.956;2023-02-12T02:47:42;102857.85;;;-1.56;85.58
77011;BME280;65945;53.148;17.956;2023-02-12T02:50:13;102859.41;;;-1.59;85.44
77011;BME280;65945;53.148;17.956;2023-02-12T02:52:52;102870.29;;;-1.62;85.35
77011;BME280;65945;53.148;17.956;2023-02-12T02:55:24;102869.30;;;-1.65;85.24
77011;BME280;65945;53.148;17.956;2023-02-12T02:58:03;102863.72;;;-1.72;85.17
77011;BME280;65945;53.148;17.956;2023-02-12T03:00:34;102865.73;;;-1.80;85.18
77011;BME280;65945;53.148;17.956;2023-02-12T03:03:11;102863.75;;;-1.86;85.11
77011;BME280;65945;53.148;17.956;2023-02-12T03:05:45;102867.17;;;-1.92;85.30
77011;BME280;65945;53.148;17.956;2023-02-12T03:10:50;102872.68;;;-1.97;85.54
77011;BME280;65945;53.148;17.956;2023-02-12T03:13:43;102878.00;;;-1.98;85.57
77011;BME280;65945;53.148;17.956;2023-02-12T03:16:15;102884.59;;;-2.00;85.47
77011;BME280;65945;53.148;17.956;2023-02-12T03:18:53;102887.67;;;-2.03;85.18
77011;BME280;65945;53.148;17.956;2023-02-12T03:21:29;102885.19;;;-2.10;85.02
77011;BME280;65945;53.148;17.956;2023-02-12T03:24:01;102884.54;;;-2.17;85.13
77011;BME280;65945;53.148;17.956;2023-02-12T03:26:38;102889.32;;;-2.21;85.11
77011;BME280;65945;53.148;17.956;2023-02-12T03:29:06;102899.31;;;-2.27;84.99
77011;BME280;65945;53.148;17.956;2023-02-12T03:36:54;102909.89;;;-2.30;85.32
77011;BME280;65945;53.148;17.956;2023-02-12T03:44:47;102914.91;;;-2.24;85.36
77011;BME280;65945;53.148;17.956;2023-02-12T03:52:25;102934.79;;;-2.24;85.19
77011;BME280;65945;53.148;17.956;2023-02-12T03:54:52;102937.31;;;-2.23;85.26
77011;BME280;65945;53.148;17.956;2023-02-12T03:57:21;102942.17;;;-2.24;85.20
77011;BME280;65945;53.148;17.956;2023-02-12T03:59:50;102948.85;;;-2.30;85.13
77011;BME280;65945;53.148;17.956;2023-02-12T04:02:17;102950.89;;;-2.34;85.13
77011;BME280;65945;53.148;17.956;2023-02-12T04:04:45;102953.19;;;-2.36;85.32
77011;BME280;65945;53.148;17.956;2023-02-12T04:07:13;102952.55;;;-2.39;85.14
77011;BME280;65945;53.148;17.956;2023-02-12T04:09:41;102960.27;;;-2.42;85.16
77011;BME280;65945;53.148;17.956;2023-02-12T04:16:00;102966.65;;;-2.45;85.13
77011;BME280;65945;53.148;17.956;2023-02-12T04:18:13;102974.45;;;-2.47;84.98
77011;BME280;65945;53.148;17.956;2023-02-12T04:21:03;102976.69;;;-2.48;84.88
77011;BME280;65945;53.148;17.956;2023-02-12T04:26:23;102977.01;;;-2.54;84.99
77011;BME280;65945;53.148;17.956;2023-02-12T04:29:17;102974.07;;;-2.54;85.11
77011;BME280;65945;53.148;17.956;2023-02-12T04:34:38;102982.66;;;-2.57;84.97
77011;BME280;65945;53.148;17.956;2023-02-12T04:37:25;102988.94;;;-2.56;85.10
77011;BME280;65945;53.148;17.956;2023-02-12T04:39:55;102990.33;;;-2.61;84.86
77011;BME280;65945;53.148;17.956;2023-02-12T04:42:23;102984.00;;;-2.62;85.07
77011;BME280;65945;53.148;17.956;2023-02-12T04:44:50;102982.34;;;-2.58;85.19
77011;BME280;65945;53.148;17.956;2023-02-12T04:47:17;102985.08;;;-2.56;85.06
77011;BME280;65945;53.148;17.956;2023-02-12T04:49:43;102988.54;;;-2.54;85.13
77011;BME280;65945;53.148;17.956;2023-02-12T04:52:10;102990.30;;;-2.55;84.91
77011;BME280;65945;53.148;17.956;2023-02-12T04:54:37;102990.19;;;-2.56;84.89
77011;BME280;65945;53.148;17.956;2023-02-12T04:57:04;102994.70;;;-2.55;84.61
77011;BME280;65945;53.148;17.956;2023-02-12T04:59:30;103001.23;;;-2.57;84.53
77011;BME280;65945;53.148;17.956;2023-02-12T05:01:57;103002.81;;;-2.61;84.55
77011;BME280;65945;53.148;17.956;2023-02-12T05:04:23;103000.16;;;-2.68;84.41
77011;BME280;65945;53.148;17.956;2023-02-12T05:06:50;103010.06;;;-2.71;84.61
77011;BME280;65945;53.148;17.956;2023-02-12T05:09:18;103009.36;;;-2.75;84.55
77011;BME280;65945;53.148;17.956;2023-02-12T05:11:45;103008.65;;;-2.76;84.67
77011;BME280;65945;53.148;17.956;2023-02-12T05:14:12;103008.61;;;-2.76;84.49
77011;BME280;65945;53.148;17.956;2023-02-12T05:16:39;103019.11;;;-2.75;84.72
77011;BME280;65945;53.148;17.956;2023-02-12T05:19:06;103022.67;;;-2.75;84.58
77011;BME280;65945;53.148;17.956;2023-02-12T05:21:35;103024.92;;;-2.75;84.69
77011;BME280;65945;53.148;17.956;2023-02-12T05:24:02;103028.31;;;-2.75;84.62
77011;BME280;65945;53.148;17.956;2023-02-12T05:26:29;103031.45;;;-2.78;84.59
77011;BME280;65945;53.148;17.956;2023-02-12T05:28:56;103037.39;;;-2.82;84.70
77011;BME280;65945;53.148;17.956;2023-02-12T05:31:23;103039.52;;;-2.86;84.77
77011;BME280;65945;53.148;17.956;2023-02-12T05:33:50;103047.14;;;-2.87;84.76
77011;BME280;65945;53.148;17.956;2023-02-12T05:36:19;103052.98;;;-2.82;84.74
77011;BME280;65945;53.148;17.956;2023-02-12T05:38:47;103052.13;;;-2.78;84.74
77011;BME280;65945;53.148;17.956;2023-02-12T05:41:16;103054.23;;;-2.74;84.71
77011;BME280;65945;53.148;17.956;2023-02-12T05:43:43;103055.71;;;-2.72;84.84
77011;BME280;65945;53.148;17.956;2023-02-12T05:46:10;103058.05;;;-2.69;84.81
77011;BME280;65945;53.148;17.956;2023-02-12T05:48:38;103054.53;;;-2.69;84.87
77011;BME280;65945;53.148;17.956;2023-02-12T05:51:11;103053.45;;;-2.70;84.96
77011;BME280;65945;53.148;17.956;2023-02-12T05:53:38;103056.10;;;-2.72;85.03
77011;BME280;65945;53.148;17.956;2023-02-12T05:56:09;103053.77;;;-2.74;84.99
77011;BME280;65945;53.148;17.956;2023-02-12T05:58:36;103054.83;;;-2.76;84.96
77011;BME280;65945;53.148;17.956;2023-02-12T06:01:09;103058.54;;;-2.79;84.78
77011;BME280;65945;53.148;17.956;2023-02-12T06:03:36;103069.02;;;-2.83;84.68
77011;BME280;65945;53.148;17.956;2023-02-12T06:06:03;103072.08;;;-2.85;84.89
77011;BME280;65945;53.148;17.956;2023-02-12T06:08:30;103073.20;;;-2.85;84.87
77011;BME280;65945;53.148;17.956;2023-02-12T06:11:02;103070.30;;;-2.85;84.86
77011;BME280;65945;53.148;17.956;2023-02-12T06:13:29;103070.02;;;-2.88;84.84
77011;BME280;65945;53.148;17.956;2023-02-12T06:15:56;103078.88;;;-2.89;84.80
77011;BME280;65945;53.148;17.956;2023-02-12T06:18:24;103080.94;;;-2.93;84.69
77011;BME280;65945;53.148;17.956;2023-02-12T06:20:51;103087.83;;;-2.96;84.67
77011;BME280;65945;53.148;17.956;2023-02-12T06:23:20;103089.08;;;-2.96;84.92
77011;BME280;65945;53.148;17.956;2023-02-12T06:25:48;103091.09;;;-2.95;84.79
77011;BME280;65945;53.148;17.956;2023-02-12T06:28:15;103090.00;;;-2.97;84.80
77011;BME280;65945;53.148;17.956;2023-02-12T06:30:42;103088.76;;;-2.96;84.62
77011;BME280;65945;53.148;17.956;2023-02-12T06:33:09;103094.40;;;-2.93;84.83
77011;BME280;65945;53.148;17.956;2023-02-12T06:35:36;103095.25;;;-2.89;84.87
77011;BME280;65945;53.148;17.956;2023-02-12T06:38:03;103095.69;;;-2.84;84.85
77011;BME280;65945;53.148;17.956;2023-02-12T06:40:29;103098.98;;;-2.79;84.97
77011;BME280;65945;53.148;17.956;2023-02-12T06:42:56;103096.81;;;-2.76;84.93
77011;BME280;65945;53.148;17.956;2023-02-12T06:45:23;103091.86;;;-2.74;84.84
77011;BME280;65945;53.148;17.956;2023-02-12T06:47:50;103098.10;;;-2.72;84.94
77011;BME280;65945;53.148;17.956;2023-02-12T06:50:17;103105.23;;;-2.68;85.07
77011;BME280;65945;53.148;17.956;2023-02-12T06:52:44;103106.80;;;-2.62;85.23
77011;BME280;65945;53.148;17.956;2023-02-12T06:55:10;103102.89;;;-2.55;85.09
77011;BME280;65945;53.148;17.956;2023-02-12T06:57:37;103100.46;;;-2.48;84.96
77011;BME280;65945;53.148;17.956;2023-02-12T07:00:04;103106.63;;;-2.46;84.94
77011;BME280;65945;53.148;17.956;2023-02-12T07:02:31;103109.98;;;-2.45;84.82
77011;BME280;65945;53.148;17.956;2023-02-12T07:04:57;103119.45;;;-2.44;84.75
77011;BME280;65945;53.148;17.956;2023-02-12T07:07:24;103123.88;;;-2.41;84.78
77011;BME280;65945;53.148;17.956;2023-02-12T07:09:51;103123.95;;;-2.37;84.86
77011;BME280;65945;53.148;17.956;2023-02-12T07:12:17;103125.27;;;-2.32;85.02
77011;BME280;65945;53.148;17.956;2023-02-12T07:14:44;103125.47;;;-2.21;85.18
77011;BME280;65945;53.148;17.956;2023-02-12T07:17:10;103127.77;;;-2.08;85.34
77011;BME280;65945;53.148;17.956;2023-02-12T07:19:37;103132.65;;;-1.94;85.34
77011;BME280;65945;53.148;17.956;2023-02-12T07:22:03;103142.44;;;-1.78;85.52
77011;BME280;65945;53.148;17.956;2023-02-12T07:24:30;103144.95;;;-1.61;85.50
77011;BME280;65945;53.148;17.956;2023-02-12T07:26:56;103143.14;;;-1.41;85.53
77011;BME280;65945;53.148;17.956;2023-02-12T07:29:23;103144.89;;;-1.23;85.28
77011;BME280;65945;53.148;17.956;2023-02-12T07:31:50;103145.11;;;-1.06;85.01
77011;BME280;65945;53.148;17.956;2023-02-12T07:34:16;103149.14;;;-0.98;84.86
77011;BME280;65945;53.148;17.956;2023-02-12T07:36:43;103151.07;;;-0.90;84.67
77011;BME280;65945;53.148;17.956;2023-02-12T07:39:10;103149.50;;;-0.82;84.92
77011;BME280;65945;53.148;17.956;2023-02-12T07:41:38;103156.79;;;-0.71;84.74
77011;BME280;65945;53.148;17.956;2023-02-12T07:44:07;103160.63;;;-0.60;84.87
77011;BME280;65945;53.148;17.956;2023-02-12T07:46:41;103164.41;;;-0.45;85.27
77011;BME280;65945;53.148;17.956;2023-02-12T07:49:12;103164.44;;;-0.26;85.03
77011;BME280;65945;53.148;17.956;2023-02-12T07:51:40;103163.37;;;-0.07;84.94
77011;BME280;65945;53.148;17.956;2023-02-12T07:54:07;103164.60;;;0.11;84.68
77011;BME280;65945;53.148;17.956;2023-02-12T07:56:35;103167.82;;;0.28;85.07
77011;BME280;65945;53.148;17.956;2023-02-12T07:59:05;103167.23;;;0.40;84.79
77011;BME280;65945;53.148;17.956;2023-02-12T08:01:38;103169.27;;;0.47;84.62
77011;BME280;65945;53.148;17.956;2023-02-12T08:04:08;103171.31;;;0.56;84.83
77011;BME280;65945;53.148;17.956;2023-02-12T08:06:38;103167.69;;;0.66;84.62
77011;BME280;65945;53.148;17.956;2023-02-12T08:09:07;103172.45;;;0.77;84.76
77011;BME280;65945;53.148;17.956;2023-02-12T08:11:36;103169.06;;;0.90;84.56
77011;BME280;65945;53.148;17.956;2023-02-12T08:14:04;103175.42;;;1.04;84.55
77011;BME280;65945;53.148;17.956;2023-02-12T08:16:35;103174.36;;;1.14;84.25
77011;BME280;65945;53.148;17.956;2023-02-12T08:19:02;103174.79;;;1.23;84.18
77011;BME280;65945;53.148;17.956;2023-02-12T08:21:29;103169.83;;;1.29;84.38
77011;BME280;65945;53.148;17.956;2023-02-12T08:23:57;103174.83;;;1.35;84.34
77011;BME280;65945;53.148;17.956;2023-02-12T08:26:32;103174.04;;;1.42;84.27
77011;BME280;65945;53.148;17.956;2023-02-12T08:31:32;103176.77;;;1.52;84.06
77011;BME280;65945;53.148;17.956;2023-02-12T08:34:00;103177.87;;;1.58;84.21
77011;BME280;65945;53.148;17.956;2023-02-12T08:36:36;103178.65;;;1.65;84.37
77011;BME280;65945;53.148;17.956;2023-02-12T08:39:05;103179.27;;;1.71;84.54
77011;BME280;65945;53.148;17.956;2023-02-12T08:41:33;103182.67;;;1.79;84.33
77011;BME280;65945;53.148;17.956;2023-02-12T08:44:02;103181.52;;;1.86;84.32
77011;BME280;65945;53.148;17.956;2023-02-12T08:46:34;103179.56;;;1.93;84.14
77011;BME280;65945;53.148;17.956;2023-02-12T08:49:04;103182.35;;;2.00;84.33
77011;BME280;65945;53.148;17.956;2023-02-12T08:51:33;103181.29;;;2.07;84.30
77011;BME280;65945;53.148;17.956;2023-02-12T08:54:04;103177.95;;;2.14;84.05
77011;BME280;65945;53.148;17.956;2023-02-12T08:56:32;103179.64;;;2.19;83.73
77011;BME280;65945;53.148;17.956;2023-02-12T08:59:01;103185.47;;;2.25;83.71
77011;BME280;65945;53.148;17.956;2023-02-12T09:01:32;103187.96;;;2.31;83.61
77011;BME280;65945;53.148;17.956;2023-02-12T09:03:59;103187.09;;;2.37;83.60
77011;BME280;65945;53.148;17.956;2023-02-12T09:06:27;103181.27;;;2.63;84.03
77011;BME280;65945;53.148;17.956;2023-02-12T09:08:54;103179.14;;;2.87;83.76
77011;BME280;65945;53.148;17.956;2023-02-12T09:11:23;103177.98;;;2.96;83.32
77011;BME280;65945;53.148;17.956;2023-02-12T09:14:04;103177.98;;;3.02;82.98
77011;BME280;65945;53.148;17.956;2023-02-12T09:16:34;103174.61;;;3.05;82.83
77011;BME280;65945;53.148;17.956;2023-02-12T09:19:02;103174.20;;;3.07;82.78
77011;BME280;65945;53.148;17.956;2023-02-12T09:21:29;103177.85;;;3.09;82.64
77011;BME280;65945;53.148;17.956;2023-02-12T09:23:55;103179.95;;;3.12;82.57
77011;BME280;65945;53.148;17.956;2023-02-12T09:26:23;103173.69;;;3.13;82.33
77011;BME280;65945;53.148;17.956;2023-02-12T09:28:54;103174.67;;;3.16;82.18
77011;BME280;65945;53.148;17.956;2023-02-12T09:31:23;103177.48;;;3.19;82.17
77011;BME280;65945;53.148;17.956;2023-02-12T09:33:57;103181.77;;;3.21;82.15
77011;BME280;65945;53.148;17.956;2023-02-12T09:36:25;103184.98;;;3.24;82.25
77011;BME280;65945;53.148;17.956;2023-02-12T09:38:52;103188.78;;;3.27;82.20
77011;BME280;65945;53.148;17.956;2023-02-12T09:41:45;103192.58;;;3.32;82.30
77011;BME280;65945;53.148;17.956;2023-02-12T09:44:21;103196.59;;;3.39;82.26
77011;BME280;65945;53.148;17.956;2023-02-12T09:46:58;103190.39;;;3.38;81.96
77011;BME280;65945;53.148;17.956;2023-02-12T09:52:18;103199.00;;;3.44;81.84
77011;BME280;65945;53.148;17.956;2023-02-12T09:54:47;103202.86;;;3.50;81.82
77011;BME280;65945;53.148;17.956;2023-02-12T09:57:32;103207.42;;;3.51;81.80
77011;BME280;65945;53.148;17.956;2023-02-12T10:00:08;103208.95;;;3.54;81.80
77011;BME280;65945;53.148;17.956;2023-02-12T10:02:36;103210.16;;;3.54;81.19
77011;BME280;65945;53.148;17.956;2023-02-12T10:05:05;103214.55;;;3.53;81.59
77011;BME280;65945;53.148;17.956;2023-02-12T10:10:22;103210.27;;;3.51;81.14
77011;BME280;65945;53.148;17.956;2023-02-12T10:12:56;103209.75;;;3.51;81.44
77011;BME280;65945;53.148;17.956;2023-02-12T10:21:05;103206.41;;;3.61;81.44
77011;BME280;65945;53.148;17.956;2023-02-12T10:28:59;103188.05;;;3.71;81.34
77011;BME280;65945;53.148;17.956;2023-02-12T10:31:34;103186.18;;;3.75;81.41
77011;BME280;65945;53.148;17.956;2023-02-12T10:34:14;103184.15;;;3.81;81.20
77011;BME280;65945;53.148;17.956;2023-02-12T10:36:50;103180.08;;;3.87;81.06
77011;BME280;65945;53.148;17.956;2023-02-12T10:39:23;103174.27;;;3.95;81.12
77011;BME280;65945;53.148;17.956;2023-02-12T10:41:57;103168.95;;;4.02;80.93
77011;BME280;65945;53.148;17.956;2023-02-12T10:44:28;103166.05;;;4.07;81.24
77011;BME280;65945;53.148;17.956;2023-02-12T10:46:55;103165.23;;;4.13;80.88
77011;BME280;65945;53.148;17.956;2023-02-12T10:49:21;103169.45;;;4.19;80.85
77011;BME280;65945;53.148;17.956;2023-02-12T10:57:21;103177.48;;;4.19;80.23
77011;BME280;65945;53.148;17.956;2023-02-12T10:59:51;103180.09;;;4.20;80.46
77011;BME280;65945;53.148;17.956;2023-02-12T11:02:30;103183.51;;;4.22;80.54
77011;BME280;65945;53.148;17.956;2023-02-12T11:04:58;103179.45;;;4.24;80.88
77011;BME280;65945;53.148;17.956;2023-02-12T11:07:27;103176.15;;;4.25;80.64
77011;BME280;65945;53.148;17.956;2023-02-12T11:09:55;103168.34;;;4.29;80.77
77011;BME280;65945;53.148;17.956;2023-02-12T11:12:30;103165.89;;;4.32;80.66
77011;BME280;65945;53.148;17.956;2023-02-12T11:15:00;103163.47;;;4.34;80.50
77011;BME280;65945;53.148;17.956;2023-02-12T11:17:31;103162.65;;;4.36;80.46
77011;BME280;65945;53.148;17.956;2023-02-12T11:20:51;103162.77;;;4.37;80.62
77011;BME280;65945;53.148;17.956;2023-02-12T11:23:02;103164.39;;;4.38;80.61
77011;BME280;65945;53.148;17.956;2023-02-12T11:25:34;103162.99;;;4.38;80.39
77011;BME280;65945;53.148;17.956;2023-02-12T11:28:18;103161.33;;;4.36;80.33
77011;BME280;65945;53.148;17.956;2023-02-12T11:36:37;103157.58;;;4.24;80.34
77011;BME280;65945;53.148;17.956;2023-02-12T11:39:18;103157.75;;;4.21;80.36
77011;BME280;65945;53.148;17.956;2023-02-12T11:41:51;103149.40;;;4.18;80.69
77011;BME280;65945;53.148;17.956;2023-02-12T11:44:26;103151.27;;;4.19;80.92
77011;BME280;65945;53.148;17.956;2023-02-12T11:47:05;103139.77;;;4.19;80.62
77011;BME280;65945;53.148;17.956;2023-02-12T11:49:40;103136.69;;;4.18;80.88
77011;BME280;65945;53.148;17.956;2023-02-12T11:52:20;103133.96;;;4.17;80.88
77011;BME280;65945;53.148;17.956;2023-02-12T11:54:49;103136.05;;;4.18;81.06
77011;BME280;65945;53.148;17.956;2023-02-12T11:57:44;103138.75;;;4.22;81.17
77011;BME280;65945;53.148;17.956;2023-02-12T12:00:25;103134.59;;;4.24;81.19
77011;BME280;65945;53.148;17.956;2023-02-12T12:03:17;103141.87;;;4.26;81.08
77011;BME280;65945;53.148;17.956;2023-02-12T12:05:50;103135.25;;;4.26;81.30
77011;BME280;65945;53.148;17.956;2023-02-12T12:08:43;103132.72;;;4.28;81.29
77011;BME280;65945;53.148;17.956;2023-02-12T12:11:18;103127.77;;;4.30;81.33
77011;BME280;65945;53.148;17.956;2023-02-12T12:13:50;103122.94;;;4.29;81.32
77011;BME280;65945;53.148;17.956;2023-02-12T12:16:28;103119.00;;;4.29;81.41
77011;BME280;65945;53.148;17.956;2023-02-12T12:19:29;103125.20;;;4.27;81.44
77011;BME280;65945;53.148;17.956;2023-02-12T12:22:41;103125.96;;;4.26;81.65
77011;BME280;65945;53.148;17.956;2023-02-12T12:25:27;103122.89;;;4.25;81.67
77011;BME280;65945;53.148;17.956;2023-02-12T12:44:09;103104.52;;;4.31;81.94
77011;BME280;65945;53.148;17.956;2023-02-12T12:49:26;103085.21;;;4.34;82.20
77011;BME280;65945;53.148;17.956;2023-02-12T12:52:05;103085.49;;;4.36;82.03
77011;BME280;65945;53.148;17.956;2023-02-12T12:57:36;103080.42;;;4.42;82.27
77011;BME280;65945;53.148;17.956;2023-02-12T13:06:02;103078.02;;;4.45;82.42
77011;BME280;65945;53.148;17.956;2023-02-12T13:13:38;103075.77;;;4.55;82.56
77011;BME280;65945;53.148;17.956;2023-02-12T13:16:22;103077.88;;;4.58;82.42
77011;BME280;65945;53.148;17.956;2023-02-12T13:22:20;103079.10;;;4.65;82.27
77011;BME280;65945;53.148;17.956;2023-02-12T13:27:24;103074.23;;;4.72;82.41
77011;BME280;65945;53.148;17.956;2023-02-12T13:29:58;103072.91;;;4.77;82.61
77011;BME280;65945;53.148;17.956;2023-02-12T13:35:19;103063.23;;;4.82;82.36
77011;BME280;65945;53.148;17.956;2023-02-12T13:37:48;103059.35;;;4.86;82.40
77011;BME280;65945;53.148;17.956;2023-02-12T13:40:22;103049.55;;;4.89;82.60
77011;BME280;65945;53.148;17.956;2023-02-12T13:42:58;103048.20;;;4.91;82.34
77011;BME280;65945;53.148;17.956;2023-02-12T13:45:45;103045.34;;;4.92;82.52
77011;BME280;65945;53.148;17.956;2023-02-12T13:48:45;103047.34;;;4.95;82.43
77011;BME280;65945;53.148;17.956;2023-02-12T13:54:26;103047.77;;;4.97;82.35
77011;BME280;65945;53.148;17.956;2023-02-12T13:57:02;103047.30;;;4.99;82.27
77011;BME280;65945;53.148;17.956;2023-02-12T14:07:19;103048.58;;;5.00;82.29
77011;BME280;65945;53.148;17.956;2023-02-12T14:12:36;103056.65;;;4.93;82.18
77011;BME280;65945;53.148;17.956;2023-02-12T14:15:28;103063.09;;;4.91;82.50
77011;BME280;65945;53.148;17.956;2023-02-12T14:18:26;103063.31;;;4.85;82.65
77011;BME280;65945;53.148;17.956;2023-02-12T14:23:40;103075.71;;;4.77;82.83
77011;BME280;65945;53.148;17.956;2023-02-12T14:26:19;103071.17;;;4.74;82.86
77011;BME280;65945;53.148;17.956;2023-02-12T14:28:55;103065.64;;;4.71;83.05
77011;BME280;65945;53.148;17.956;2023-02-12T14:47:00;103044.98;;;4.68;83.12
77011;BME280;65945;53.148;17.956;2023-02-12T14:49:38;103044.88;;;4.67;83.30
77011;BME280;65945;53.148;17.956;2023-02-12T14:57:32;103053.30;;;4.68;83.37
77011;BME280;65945;53.148;17.956;2023-02-12T15:02:36;103054.63;;;4.68;83.67
77011;BME280;65945;53.148;17.956;2023-02-12T15:05:48;103056.13;;;4.69;83.76
77011;BME280;65945;53.148;17.956;2023-02-12T15:10:54;103043.88;;;4.68;83.76
77011;BME280;65945;53.148;17.956;2023-02-12T15:16:28;103034.54;;;4.69;83.60
77011;BME280;65945;53.148;17.956;2023-02-12T15:19:06;103033.76;;;4.69;84.13
77011;BME280;65945;53.148;17.956;2023-02-12T15:21:38;103033.23;;;4.69;83.95
77011;BME280;65945;53.148;17.956;2023-02-12T15:24:10;103036.24;;;4.69;83.63
77011;BME280;65945;53.148;17.956;2023-02-12T15:26:47;103037.75;;;4.71;83.87
77011;BME280;65945;53.148;17.956;2023-02-12T15:31:49;103046.24;;;4.73;83.72
77011;BME280;65945;53.148;17.956;2023-02-12T15:34:19;103054.05;;;4.74;83.88
77011;BME280;65945;53.148;17.956;2023-02-12T15:36:48;103053.73;;;4.76;83.83
77011;BME280;65945;53.148;17.956;2023-02-12T15:39:20;103054.28;;;4.77;84.03
77011;BME280;65945;53.148;17.956;2023-02-12T15:41:48;103055.24;;;4.78;83.93
77011;BME280;65945;53.148;17.956;2023-02-12T15:44:33;103056.38;;;4.80;83.77
77011;BME280;65945;53.148;17.956;2023-02-12T15:47:13;103054.38;;;4.81;83.66
77011;BME280;65945;53.148;17.956;2023-02-12T15:49:41;103050.70;;;4.80;83.76